Terminal Aerodrome Forecast
Issued by NWS

Home | Current Version | Previous Version | Text Only | Print | Product List | Glossary On
Versions: 1 2 3 4 5 6 7 8 9 10 11 12 13 14 15 16 17 18 19 20 21 22 23 24
000
FTUS41 KBUF 211100
TAFIAG
TAF
KIAG 211136Z 2112/2212 23006KT P6SM BKN025 BKN250
     FM211300 24007KT P6SM BKN035
     FM211500 24009KT P6SM VCSH BKN050
     FM212100 25010KT P6SM BKN070
     FM220200 VRB03KT 6SM BR SCT015 BKN250
     FM220600 VRB03KT 2SM BR BKN009=

USA.gov is the U.S. government's official web portal to all federal, state and local government web resources and services.